sensor_id;sensor_type;location;lat;lon;timestamp;temperature;humidity
10911;DHT22;5508;49.150;11.030;2023-04-24T00:02:24;8.80;99.90
10911;DHT22;5508;49.150;11.030;2023-04-24T00:05:26;8.80;99.90
10911;DHT22;5508;49.150;11.030;2023-04-24T00:08:26;8.90;99.90
10911;DHT22;5508;49.150;11.030;2023-04-24T00:11:27;8.80;99.90
10911;DHT22;5508;49.150;11.030;2023-04-24T00:14:28;8.80;99.90
10911;DHT22;5508;49.150;11.030;2023-04-24T00:17:28;8.90;99.90
10911;DHT22;5508;49.150;11.030;2023-04-24T00:20:29;8.90;99.90
10911;DHT22;5508;49.150;11.030;2023-04-24T00:23:30;8.80;99.90
10911;DHT22;5508;49.150;11.030;2023-04-24T00:26:30;8.80;99.90
10911;DHT22;5508;49.150;11.030;2023-04-24T00:29:31;8.70;99.90
10911;DHT22;5508;49.150;11.030;2023-04-24T00:32:32;8.70;99.90
10911;DHT22;5508;49.150;11.030;2023-04-24T00:35:32;8.70;99.90
10911;DHT22;5508;49.150;11.030;2023-04-24T00:38:33;8.60;99.90
10911;DHT22;5508;49.150;11.030;2023-04-24T00:41:33;8.60;99.90
10911;DHT22;5508;49.150;11.030;2023-04-24T00:44:34;8.60;99.90
10911;DHT22;5508;49.150;11.030;2023-04-24T00:47:35;8.60;99.90
10911;DHT22;5508;49.150;11.030;2023-04-24T00:50:36;8.60;99.90
10911;DHT22;5508;49.150;11.030;2023-04-24T00:53:38;8.60;99.90
10911;DHT22;5508;49.150;11.030;2023-04-24T00:56:40;8.60;99.90
10911;DHT22;5508;49.150;11.030;2023-04-24T00:59:41;8.60;99.90
10911;DHT22;5508;49.150;11.030;2023-04-24T01:02:43;8.60;99.90
10911;DHT22;5508;49.150;11.030;2023-04-24T01:05:45;8.50;99.90
10911;DHT22;5508;49.150;11.030;2023-04-24T01:08:47;8.50;99.90
10911;DHT22;5508;49.150;11.030;2023-04-24T01:11:48;8.50;99.90
10911;DHT22;5508;49.150;11.030;2023-04-24T01:14:49;8.50;99.90
10911;DHT22;5508;49.150;11.030;2023-04-24T01:17:49;8.50;99.90
10911;DHT22;5508;49.150;11.030;2023-04-24T01:20:53;8.40;99.90
10911;DHT22;5508;49.150;11.030;2023-04-24T01:23:55;8.40;99.90
10911;DHT22;5508;49.150;11.030;2023-04-24T01:26:56;8.30;99.90
10911;DHT22;5508;49.150;11.030;2023-04-24T01:29:57;8.30;99.90
10911;DHT22;5508;49.150;11.030;2023-04-24T01:32:58;8.30;99.90
10911;DHT22;5508;49.150;11.030;2023-04-24T01:35:59;8.30;99.90
10911;DHT22;5508;49.150;11.030;2023-04-24T01:39:01;8.30;99.90
10911;DHT22;5508;49.150;11.030;2023-04-24T01:42:02;8.30;99.90
10911;DHT22;5508;49.150;11.030;2023-04-24T01:45:03;8.20;99.90
10911;DHT22;5508;49.150;11.030;2023-04-24T01:48:05;8.20;99.90
10911;DHT22;5508;49.150;11.030;2023-04-24T01:51:06;8.10;99.90
10911;DHT22;5508;49.150;11.030;2023-04-24T01:54:06;8.10;99.90
10911;DHT22;5508;49.150;11.030;2023-04-24T01:57:07;8.20;99.90
10911;DHT22;5508;49.150;11.030;2023-04-24T02:00:09;8.10;99.90
10911;DHT22;5508;49.150;11.030;2023-04-24T02:03:12;8.10;99.90
10911;DHT22;5508;49.150;11.030;2023-04-24T02:06:12;8.20;99.90
10911;DHT22;5508;49.150;11.030;2023-04-24T02:09:13;8.20;99.90
10911;DHT22;5508;49.150;11.030;2023-04-24T02:12:15;8.20;99.90
10911;DHT22;5508;49.150;11.030;2023-04-24T02:15:15;8.10;99.90
10911;DHT22;5508;49.150;11.030;2023-04-24T02:18:17;8.10;99.90
10911;DHT22;5508;49.150;11.030;2023-04-24T02:21:18;8.10;99.90
10911;DHT22;5508;49.150;11.030;2023-04-24T02:24:18;8.10;99.90
10911;DHT22;5508;49.150;11.030;2023-04-24T02:27:19;8.10;99.90
10911;DHT22;5508;49.150;11.030;2023-04-24T02:30:20;8.10;99.90
10911;DHT22;5508;49.150;11.030;2023-04-24T02:33:20;8.10;99.90
10911;DHT22;5508;49.150;11.030;2023-04-24T02:36:21;8.10;99.90
10911;DHT22;5508;49.150;11.030;2023-04-24T02:39:21;8.10;99.90
10911;DHT22;5508;49.150;11.030;2023-04-24T02:42:22;8.10;99.90
10911;DHT22;5508;49.150;11.030;2023-04-24T02:45:23;8.10;99.90
10911;DHT22;5508;49.150;11.030;2023-04-24T02:48:23;8.00;99.90
10911;DHT22;5508;49.150;11.030;2023-04-24T02:51:24;8.10;99.90
10911;DHT22;5508;49.150;11.030;2023-04-24T02:54:25;8.00;99.90
10911;DHT22;5508;49.150;11.030;2023-04-24T02:57:26;8.00;99.90
10911;DHT22;5508;49.150;11.030;2023-04-24T03:00:26;8.00;99.90
10911;DHT22;5508;49.150;11.030;2023-04-24T03:03:27;8.00;99.90
10911;DHT22;5508;49.150;11.030;2023-04-24T03:06:27;8.00;99.90
10911;DHT22;5508;49.150;11.030;2023-04-24T03:09:28;8.00;99.90
10911;DHT22;5508;49.150;11.030;2023-04-24T03:12:29;8.00;99.90
10911;DHT22;5508;49.150;11.030;2023-04-24T03:15:29;7.90;99.90
10911;DHT22;5508;49.150;11.030;2023-04-24T03:18:30;7.90;99.90
10911;DHT22;5508;49.150;11.030;2023-04-24T03:21:30;7.90;99.90
10911;DHT22;5508;49.150;11.030;2023-04-24T03:24:31;7.80;99.90
10911;DHT22;5508;49.150;11.030;2023-04-24T03:27:32;7.80;99.90
10911;DHT22;5508;49.150;11.030;2023-04-24T03:30:32;7.80;99.90
10911;DHT22;5508;49.150;11.030;2023-04-24T03:33:33;7.90;99.90
10911;DHT22;5508;49.150;11.030;2023-04-24T03:36:33;7.80;99.90
10911;DHT22;5508;49.150;11.030;2023-04-24T03:39:34;7.80;99.90
10911;DHT22;5508;49.150;11.030;2023-04-24T03:42:35;8.00;99.90
10911;DHT22;5508;49.150;11.030;2023-04-24T03:45:35;8.00;99.90
10911;DHT22;5508;49.150;11.030;2023-04-24T03:48:36;8.00;99.90
10911;DHT22;5508;49.150;11.030;2023-04-24T03:51:36;8.00;99.90
10911;DHT22;5508;49.150;11.030;2023-04-24T03:54:37;8.10;99.90
10911;DHT22;5508;49.150;11.030;2023-04-24T03:57:37;8.10;99.90
10911;DHT22;5508;49.150;11.030;2023-04-24T04:00:38;8.10;99.90
10911;DHT22;5508;49.150;11.030;2023-04-24T04:03:40;8.10;99.90
10911;DHT22;5508;49.150;11.030;2023-04-24T04:06:41;8.10;99.90
10911;DHT22;5508;49.150;11.030;2023-04-24T04:09:42;8.10;99.90
10911;DHT22;5508;49.150;11.030;2023-04-24T04:12:43;8.20;99.90
10911;DHT22;5508;49.150;11.030;2023-04-24T04:15:43;8.20;99.90
10911;DHT22;5508;49.150;11.030;2023-04-24T04:18:44;8.30;99.90
10911;DHT22;5508;49.150;11.030;2023-04-24T04:21:45;8.20;99.90
10911;DHT22;5508;49.150;11.030;2023-04-24T04:24:46;8.30;99.90
10911;DHT22;5508;49.150;11.030;2023-04-24T04:27:47;8.20;99.90
10911;DHT22;5508;49.150;11.030;2023-04-24T04:30:51;8.30;99.90
10911;DHT22;5508;49.150;11.030;2023-04-24T04:33:54;8.20;99.90
10911;DHT22;5508;49.150;11.030;2023-04-24T04:36:54;8.20;99.90
10911;DHT22;5508;49.150;11.030;2023-04-24T04:39:55;8.20;99.90
10911;DHT22;5508;49.150;11.030;2023-04-24T04:42:56;8.20;99.90
10911;DHT22;5508;49.150;11.030;2023-04-24T04:45:57;8.20;99.90
10911;DHT22;5508;49.150;11.030;2023-04-24T04:48:59;8.30;99.90
10911;DHT22;5508;49.150;11.030;2023-04-24T04:52:01;8.30;99.90
10911;DHT22;5508;49.150;11.030;2023-04-24T04:55:02;8.30;99.90
10911;DHT22;5508;49.150;11.030;2023-04-24T04:58:03;8.40;99.90
10911;DHT22;5508;49.150;11.030;2023-04-24T05:01:03;8.40;99.90
10911;DHT22;5508;49.150;11.030;2023-04-24T05:04:04;8.40;99.90
10911;DHT22;5508;49.150;11.030;2023-04-24T05:07:04;8.50;99.90
10911;DHT22;5508;49.150;11.030;2023-04-24T05:10:06;8.40;99.90
10911;DHT22;5508;49.150;11.030;2023-04-24T05:13:07;8.50;99.90
10911;DHT22;5508;49.150;11.030;2023-04-24T05:16:07;8.50;99.90
10911;DHT22;5508;49.150;11.030;2023-04-24T05:19:08;8.50;99.90
10911;DHT22;5508;49.150;11.030;2023-04-24T05:22:08;8.60;99.90
10911;DHT22;5508;49.150;11.030;2023-04-24T05:25:10;8.60;99.90
10911;DHT22;5508;49.150;11.030;2023-04-24T05:28:10;8.60;99.90
10911;DHT22;5508;49.150;11.030;2023-04-24T05:31:11;8.60;99.90
10911;DHT22;5508;49.150;11.030;2023-04-24T05:34:12;8.70;99.90
10911;DHT22;5508;49.150;11.030;2023-04-24T05:37:13;8.80;99.90
10911;DHT22;5508;49.150;11.030;2023-04-24T05:40:13;8.90;99.90
10911;DHT22;5508;49.150;11.030;2023-04-24T05:43:14;9.00;99.90
10911;DHT22;5508;49.150;11.030;2023-04-24T05:46:15;9.10;99.90
10911;DHT22;5508;49.150;11.030;2023-04-24T05:49:16;9.10;99.90
10911;DHT22;5508;49.150;11.030;2023-04-24T05:52:16;9.20;99.90
10911;DHT22;5508;49.150;11.030;2023-04-24T05:55:17;9.40;99.90
10911;DHT22;5508;49.150;11.030;2023-04-24T05:58:18;9.50;99.90
10911;DHT22;5508;49.150;11.030;2023-04-24T06:01:19;9.60;99.90
10911;DHT22;5508;49.150;11.030;2023-04-24T06:04:20;9.50;99.90
10911;DHT22;5508;49.150;11.030;2023-04-24T06:07:20;9.70;99.90
10911;DHT22;5508;49.150;11.030;2023-04-24T06:10:21;9.80;99.90
10911;DHT22;5508;49.150;11.030;2023-04-24T06:13:22;10.00;99.90
10911;DHT22;5508;49.150;11.030;2023-04-24T06:16:22;10.10;99.90
10911;DHT22;5508;49.150;11.030;2023-04-24T06:19:23;10.30;99.90
10911;DHT22;5508;49.150;11.030;2023-04-24T06:22:23;10.60;99.90
10911;DHT22;5508;49.150;11.030;2023-04-24T06:25:25;10.90;99.90
10911;DHT22;5508;49.150;11.030;2023-04-24T06:28:27;10.90;99.90
10911;DHT22;5508;49.150;11.030;2023-04-24T06:31:27;11.00;99.90
10911;DHT22;5508;49.150;11.030;2023-04-24T06:34:28;11.10;99.90
10911;DHT22;5508;49.150;11.030;2023-04-24T06:37:28;10.90;99.90
10911;DHT22;5508;49.150;11.030;2023-04-24T06:40:29;11.00;99.90
10911;DHT22;5508;49.150;11.030;2023-04-24T06:43:31;10.90;99.90
10911;DHT22;5508;49.150;11.030;2023-04-24T06:46:31;10.50;99.90
10911;DHT22;5508;49.150;11.030;2023-04-24T06:49:32;10.30;99.90
10911;DHT22;5508;49.150;11.030;2023-04-24T06:52:33;10.10;99.90
10911;DHT22;5508;49.150;11.030;2023-04-24T06:55:33;9.90;99.90
10911;DHT22;5508;49.150;11.030;2023-04-24T06:58:35;9.70;99.90
10911;DHT22;5508;49.150;11.030;2023-04-24T07:01:36;9.60;99.90
10911;DHT22;5508;49.150;11.030;2023-04-24T07:04:36;9.60;99.90
10911;DHT22;5508;49.150;11.030;2023-04-24T07:07:37;9.60;99.90
10911;DHT22;5508;49.150;11.030;2023-04-24T07:10:38;9.60;99.90
10911;DHT22;5508;49.150;11.030;2023-04-24T07:13:38;9.70;99.90
10911;DHT22;5508;49.150;11.030;2023-04-24T07:16:42;9.70;99.90
10911;DHT22;5508;49.150;11.030;2023-04-24T07:19:43;9.60;99.90
10911;DHT22;5508;49.150;11.030;2023-04-24T07:22:43;9.60;99.90
10911;DHT22;5508;49.150;11.030;2023-04-24T07:25:44;9.50;99.90
10911;DHT22;5508;49.150;11.030;2023-04-24T07:28:44;9.30;99.90
10911;DHT22;5508;49.150;11.030;2023-04-24T07:31:45;9.10;99.90
10911;DHT22;5508;49.150;11.030;2023-04-24T07:34:46;9.00;99.90
10911;DHT22;5508;49.150;11.030;2023-04-24T07:37:47;9.10;99.90
10911;DHT22;5508;49.150;11.030;2023-04-24T07:40:48;9.30;99.90
10911;DHT22;5508;49.150;11.030;2023-04-24T07:43:49;9.40;99.90
10911;DHT22;5508;49.150;11.030;2023-04-24T07:46:50;9.60;99.90
10911;DHT22;5508;49.150;11.030;2023-04-24T07:49:50;9.70;99.90
10911;DHT22;5508;49.150;11.030;2023-04-24T07:52:51;9.90;99.90
10911;DHT22;5508;49.150;11.030;2023-04-24T07:55:52;10.10;99.90
10911;DHT22;5508;49.150;11.030;2023-04-24T07:58:54;10.40;99.90
10911;DHT22;5508;49.150;11.030;2023-04-24T08:01:54;10.70;99.90
10911;DHT22;5508;49.150;11.030;2023-04-24T08:04:55;10.90;99.90
10911;DHT22;5508;49.150;11.030;2023-04-24T08:07:56;10.80;99.00
10911;DHT22;5508;49.150;11.030;2023-04-24T08:10:57;10.80;99.20
10911;DHT22;5508;49.150;11.030;2023-04-24T08:13:57;10.80;99.10
10911;DHT22;5508;49.150;11.030;2023-04-24T08:16:58;10.70;99.10
10911;DHT22;5508;49.150;11.030;2023-04-24T08:20:01;10.80;95.60
10911;DHT22;5508;49.150;11.030;2023-04-24T08:23:02;10.60;95.00
10911;DHT22;5508;49.150;11.030;2023-04-24T08:26:02;10.50;95.90
10911;DHT22;5508;49.150;11.030;2023-04-24T08:29:04;10.60;96.40
10911;DHT22;5508;49.150;11.030;2023-04-24T08:32:05;10.70;94.80
10911;DHT22;5508;49.150;11.030;2023-04-24T08:35:06;10.70;94.00
10911;DHT22;5508;49.150;11.030;2023-04-24T08:38:08;10.70;93.10
10911;DHT22;5508;49.150;11.030;2023-04-24T08:41:09;10.80;92.30
10911;DHT22;5508;49.150;11.030;2023-04-24T08:44:11;10.60;93.30
10911;DHT22;5508;49.150;11.030;2023-04-24T08:47:15;10.40;93.00
10911;DHT22;5508;49.150;11.030;2023-04-24T08:50:16;10.50;94.20
10911;DHT22;5508;49.150;11.030;2023-04-24T08:53:18;10.90;93.80
10911;DHT22;5508;49.150;11.030;2023-04-24T08:56:19;11.20;88.70
10911;DHT22;5508;49.150;11.030;2023-04-24T08:59:21;11.10;85.30
10911;DHT22;5508;49.150;11.030;2023-04-24T09:02:23;10.90;84.50
10911;DHT22;5508;49.150;11.030;2023-04-24T09:05:23;10.70;84.10
10911;DHT22;5508;49.150;11.030;2023-04-24T09:08:25;10.80;83.40
10911;DHT22;5508;49.150;11.030;2023-04-24T09:11:27;10.90;80.70
10911;DHT22;5508;49.150;11.030;2023-04-24T09:14:28;10.50;81.20
10911;DHT22;5508;49.150;11.030;2023-04-24T09:17:32;10.60;81.20
10911;DHT22;5508;49.150;11.030;2023-04-24T09:20:33;10.70;83.20
10911;DHT22;5508;49.150;11.030;2023-04-24T09:23:36;11.00;84.50
10911;DHT22;5508;49.150;11.030;2023-04-24T09:26:37;11.40;81.90
10911;DHT22;5508;49.150;11.030;2023-04-24T09:29:37;11.70;80.30
10911;DHT22;5508;49.150;11.030;2023-04-24T09:32:38;12.10;80.70
10911;DHT22;5508;49.150;11.030;2023-04-24T09:35:48;12.30;73.40
10911;DHT22;5508;49.150;11.030;2023-04-24T09:38:49;12.10;75.50
10911;DHT22;5508;49.150;11.030;2023-04-24T09:41:55;12.20;73.70
10911;DHT22;5508;49.150;11.030;2023-04-24T09:45:00;12.60;73.30
10911;DHT22;5508;49.150;11.030;2023-04-24T09:48:01;12.20;72.80
10911;DHT22;5508;49.150;11.030;2023-04-24T09:51:04;11.70;73.90
10911;DHT22;5508;49.150;11.030;2023-04-24T09:54:15;11.60;72.20
10911;DHT22;5508;49.150;11.030;2023-04-24T09:57:16;11.10;75.30
10911;DHT22;5508;49.150;11.030;2023-04-24T10:03:24;10.90;74.30
10911;DHT22;5508;49.150;11.030;2023-04-24T10:06:36;11.20;77.90
10911;DHT22;5508;49.150;11.030;2023-04-24T10:09:36;11.50;73.10
10911;DHT22;5508;49.150;11.030;2023-04-24T10:12:37;11.80;70.40
10911;DHT22;5508;49.150;11.030;2023-04-24T10:15:38;12.00;72.40
10911;DHT22;5508;49.150;11.030;2023-04-24T10:18:41;12.30;73.90
10911;DHT22;5508;49.150;11.030;2023-04-24T10:21:43;12.50;69.20
10911;DHT22;5508;49.150;11.030;2023-04-24T10:24:47;12.20;68.20
10911;DHT22;5508;49.150;11.030;2023-04-24T10:27:51;11.90;68.20
10911;DHT22;5508;49.150;11.030;2023-04-24T10:30:54;11.60;64.30
10911;DHT22;5508;49.150;11.030;2023-04-24T10:33:55;11.60;66.50
10911;DHT22;5508;49.150;11.030;2023-04-24T10:36:57;11.60;66.20
10911;DHT22;5508;49.150;11.030;2023-04-24T10:39:57;11.80;64.10
10911;DHT22;5508;49.150;11.030;2023-04-24T10:42:58;12.10;63.60
10911;DHT22;5508;49.150;11.030;2023-04-24T10:46:03;12.90;64.40
10911;DHT22;5508;49.150;11.030;2023-04-24T10:49:06;12.90;62.90
10911;DHT22;5508;49.150;11.030;2023-04-24T10:52:08;12.90;62.00
10911;DHT22;5508;49.150;11.030;2023-04-24T10:55:09;13.00;59.20
10911;DHT22;5508;49.150;11.030;2023-04-24T10:58:10;12.80;54.10
10911;DHT22;5508;49.150;11.030;2023-04-24T11:01:31;12.90;53.50
10911;DHT22;5508;49.150;11.030;2023-04-24T11:04:33;12.80;54.00
10911;DHT22;5508;49.150;11.030;2023-04-24T11:11:17;13.60;53.40
10911;DHT22;5508;49.150;11.030;2023-04-24T11:14:18;14.10;51.50
10911;DHT22;5508;49.150;11.030;2023-04-24T11:17:38;13.80;48.70
10911;DHT22;5508;49.150;11.030;2023-04-24T11:20:44;13.40;52.60
10911;DHT22;5508;49.150;11.030;2023-04-24T11:23:45;13.60;53.50
10911;DHT22;5508;49.150;11.030;2023-04-24T11:26:47;12.80;52.30
10911;DHT22;5508;49.150;11.030;2023-04-24T11:33:02;12.70;51.20
10911;DHT22;5508;49.150;11.030;2023-04-24T11:36:03;12.60;54.10
10911;DHT22;5508;49.150;11.030;2023-04-24T11:39:04;12.40;59.00
10911;DHT22;5508;49.150;11.030;2023-04-24T11:42:05;12.30;60.90
10911;DHT22;5508;49.150;11.030;2023-04-24T11:45:09;12.00;57.20
10911;DHT22;5508;49.150;11.030;2023-04-24T11:48:10;11.70;57.80
10911;DHT22;5508;49.150;11.030;2023-04-24T11:51:12;11.70;57.70
10911;DHT22;5508;49.150;11.030;2023-04-24T11:54:13;11.70;58.60
10911;DHT22;5508;49.150;11.030;2023-04-24T11:57:13;11.50;58.90
10911;DHT22;5508;49.150;11.030;2023-04-24T12:00:28;11.50;60.60
10911;DHT22;5508;49.150;11.030;2023-04-24T12:03:29;12.00;60.50
10911;DHT22;5508;49.150;11.030;2023-04-24T12:06:29;12.40;60.40
10911;DHT22;5508;49.150;11.030;2023-04-24T12:09:46;12.40;58.90
10911;DHT22;5508;49.150;11.030;2023-04-24T12:12:46;12.60;60.60
10911;DHT22;5508;49.150;11.030;2023-04-24T12:15:47;12.40;57.60
10911;DHT22;5508;49.150;11.030;2023-04-24T12:18:48;12.70;60.30
10911;DHT22;5508;49.150;11.030;2023-04-24T12:22:05;13.30;57.80
10911;DHT22;5508;49.150;11.030;2023-04-24T12:25:06;13.50;56.50
10911;DHT22;5508;49.150;11.030;2023-04-24T12:28:12;13.90;55.80
10911;DHT22;5508;49.150;11.030;2023-04-24T12:31:13;13.80;57.20
10911;DHT22;5508;49.150;11.030;2023-04-24T12:34:21;13.20;55.00
10911;DHT22;5508;49.150;11.030;2023-04-24T12:37:26;12.20;53.90
10911;DHT22;5508;49.150;11.030;2023-04-24T12:40:26;12.10;59.00
10911;DHT22;5508;49.150;11.030;2023-04-24T12:43:29;12.00;58.90
10911;DHT22;5508;49.150;11.030;2023-04-24T12:46:30;11.70;58.70
10911;DHT22;5508;49.150;11.030;2023-04-24T12:49:30;11.70;59.70
10911;DHT22;5508;49.150;11.030;2023-04-24T12:52:31;11.50;59.60
10911;DHT22;5508;49.150;11.030;2023-04-24T12:55:32;11.10;61.70
10911;DHT22;5508;49.150;11.030;2023-04-24T12:58:32;10.70;62.90
10911;DHT22;5508;49.150;11.030;2023-04-24T13:01:33;10.60;59.90
10911;DHT22;5508;49.150;11.030;2023-04-24T13:04:34;10.50;62.70
10911;DHT22;5508;49.150;11.030;2023-04-24T13:07:34;10.50;64.90
10911;DHT22;5508;49.150;11.030;2023-04-24T13:10:35;10.60;63.40
10911;DHT22;5508;49.150;11.030;2023-04-24T13:13:36;10.50;62.40
10911;DHT22;5508;49.150;11.030;2023-04-24T13:16:36;10.50;61.20
10911;DHT22;5508;49.150;11.030;2023-04-24T13:19:38;10.70;60.90
10911;DHT22;5508;49.150;11.030;2023-04-24T13:22:39;10.90;61.30
10911;DHT22;5508;49.150;11.030;2023-04-24T13:25:40;11.30;61.40
10911;DHT22;5508;49.150;11.030;2023-04-24T13:28:41;11.30;60.00
10911;DHT22;5508;49.150;11.030;2023-04-24T13:31:41;11.50;60.70
10911;DHT22;5508;49.150;11.030;2023-04-24T13:34:42;11.70;60.10
10911;DHT22;5508;49.150;11.030;2023-04-24T13:37:43;11.70;60.00
10911;DHT22;5508;49.150;11.030;2023-04-24T13:40:43;11.50;61.10
10911;DHT22;5508;49.150;11.030;2023-04-24T13:43:44;11.10;61.50
10911;DHT22;5508;49.150;11.030;2023-04-24T13:46:47;10.90;63.60
10911;DHT22;5508;49.150;11.030;2023-04-24T13:49:47;10.90;64.80
10911;DHT22;5508;49.150;11.030;2023-04-24T13:52:48;10.80;64.50
10911;DHT22;5508;49.150;11.030;2023-04-24T13:55:49;10.70;63.50
10911;DHT22;5508;49.150;11.030;2023-04-24T13:58:50;10.50;64.40
10911;DHT22;5508;49.150;11.030;2023-04-24T14:01:50;10.50;65.00
10911;DHT22;5508;49.150;11.030;2023-04-24T14:04:51;10.40;67.30
10911;DHT22;5508;49.150;11.030;2023-04-24T14:07:51;10.30;64.00
10911;DHT22;5508;49.150;11.030;2023-04-24T14:10:52;10.30;65.70
10911;DHT22;5508;49.150;11.030;2023-04-24T14:13:54;10.30;65.00
10911;DHT22;5508;49.150;11.030;2023-04-24T14:16:57;10.70;66.40
10911;DHT22;5508;49.150;11.030;2023-04-24T14:19:57;11.10;63.70
10911;DHT22;5508;49.150;11.030;2023-04-24T14:23:00;11.90;63.10
10911;DHT22;5508;49.150;11.030;2023-04-24T14:26:00;12.00;59.40
10911;DHT22;5508;49.150;11.030;2023-04-24T14:29:01;12.20;58.90
10911;DHT22;5508;49.150;11.030;2023-04-24T14:32:02;12.30;58.60
10911;DHT22;5508;49.150;11.030;2023-04-24T14:35:02;12.60;60.70
10911;DHT22;5508;49.150;11.030;2023-04-24T14:38:03;12.30;61.00
10911;DHT22;5508;49.150;11.030;2023-04-24T14:41:04;12.50;59.60
10911;DHT22;5508;49.150;11.030;2023-04-24T14:44:09;12.20;57.60
10911;DHT22;5508;49.150;11.030;2023-04-24T14:47:10;12.10;61.80
10911;DHT22;5508;49.150;11.030;2023-04-24T14:50:11;11.80;60.70
10911;DHT22;5508;49.150;11.030;2023-04-24T14:53:13;11.50;62.20
10911;DHT22;5508;49.150;11.030;2023-04-24T14:56:15;11.30;60.30
10911;DHT22;5508;49.150;11.030;2023-04-24T14:59:15;11.10;64.00
10911;DHT22;5508;49.150;11.030;2023-04-24T15:02:16;11.10;64.60
10911;DHT22;5508;49.150;11.030;2023-04-24T15:05:17;10.70;64.80
10911;DHT22;5508;49.150;11.030;2023-04-24T15:08:17;10.30;67.90
10911;DHT22;5508;49.150;11.030;2023-04-24T15:11:18;9.90;68.50
10911;DHT22;5508;49.150;11.030;2023-04-24T15:14:19;9.90;70.10
10911;DHT22;5508;49.150;11.030;2023-04-24T15:17:19;10.10;69.00
10911;DHT22;5508;49.150;11.030;2023-04-24T15:20:20;10.30;65.80
10911;DHT22;5508;49.150;11.030;2023-04-24T15:23:20;10.70;66.10
10911;DHT22;5508;49.150;11.030;2023-04-24T15:26:23;11.20;65.50
10911;DHT22;5508;49.150;11.030;2023-04-24T15:29:24;11.40;63.20
10911;DHT22;5508;49.150;11.030;2023-04-24T15:32:25;11.20;64.30
10911;DHT22;5508;49.150;11.030;2023-04-24T15:35:26;11.20;64.00
10911;DHT22;5508;49.150;11.030;2023-04-24T15:38:26;11.30;64.40
10911;DHT22;5508;49.150;11.030;2023-04-24T15:41:27;11.40;62.50
10911;DHT22;5508;49.150;11.030;2023-04-24T15:44:28;11.30;63.50
10911;DHT22;5508;49.150;11.030;2023-04-24T15:47:28;10.70;66.30
10911;DHT22;5508;49.150;11.030;2023-04-24T15:50:29;10.50;66.90
10911;DHT22;5508;49.150;11.030;2023-04-24T15:53:30;10.30;69.10
10911;DHT22;5508;49.150;11.030;2023-04-24T15:56:31;10.20;69.70
10911;DHT22;5508;49.150;11.030;2023-04-24T15:59:32;10.30;69.50
10911;DHT22;5508;49.150;11.030;2023-04-24T16:02:33;10.10;68.80
10911;DHT22;5508;49.150;11.030;2023-04-24T16:05:33;10.30;74.10
10911;DHT22;5508;49.150;11.030;2023-04-24T16:08:34;10.90;75.20
10911;DHT22;5508;49.150;11.030;2023-04-24T16:11:35;11.20;71.20
10911;DHT22;5508;49.150;11.030;2023-04-24T16:14:37;11.50;70.20
10911;DHT22;5508;49.150;11.030;2023-04-24T16:17:38;11.50;67.20
10911;DHT22;5508;49.150;11.030;2023-04-24T16:20:38;11.50;65.50
10911;DHT22;5508;49.150;11.030;2023-04-24T16:23:39;11.50;65.00
10911;DHT22;5508;49.150;11.030;2023-04-24T16:26:40;11.30;63.00
10911;DHT22;5508;49.150;11.030;2023-04-24T16:29:40;11.20;63.70
10911;DHT22;5508;49.150;11.030;2023-04-24T16:32:41;11.10;63.80
10911;DHT22;5508;49.150;11.030;2023-04-24T16:35:41;10.70;65.50
10911;DHT22;5508;49.150;11.030;2023-04-24T16:38:43;10.50;66.30
10911;DHT22;5508;49.150;11.030;2023-04-24T16:41:44;10.20;66.30
10911;DHT22;5508;49.150;11.030;2023-04-24T16:44:46;10.00;66.80
10911;DHT22;5508;49.150;11.030;2023-04-24T16:47:46;9.80;67.10
10911;DHT22;5508;49.150;11.030;2023-04-24T16:50:47;9.90;66.90
10911;DHT22;5508;49.150;11.030;2023-04-24T16:53:47;9.80;69.40
10911;DHT22;5508;49.150;11.030;2023-04-24T16:56:48;9.90;70.60
10911;DHT22;5508;49.150;11.030;2023-04-24T16:59:49;9.90;72.00
10911;DHT22;5508;49.150;11.030;2023-04-24T17:02:50;10.00;70.70
10911;DHT22;5508;49.150;11.030;2023-04-24T17:05:50;10.00;71.30
10911;DHT22;5508;49.150;11.030;2023-04-24T17:08:51;10.00;70.70
10911;DHT22;5508;49.150;11.030;2023-04-24T17:11:52;10.30;71.30
10911;DHT22;5508;49.150;11.030;2023-04-24T17:14:52;10.60;70.50
10911;DHT22;5508;49.150;11.030;2023-04-24T17:17:53;10.50;69.60
10911;DHT22;5508;49.150;11.030;2023-04-24T17:20:53;10.20;71.10
10911;DHT22;5508;49.150;11.030;2023-04-24T17:23:54;10.10;68.50
10911;DHT22;5508;49.150;11.030;2023-04-24T17:26:55;9.90;71.30
10911;DHT22;5508;49.150;11.030;2023-04-24T17:29:57;9.70;71.70
10911;DHT22;5508;49.150;11.030;2023-04-24T17:32:57;9.50;74.40
10911;DHT22;5508;49.150;11.030;2023-04-24T17:35:59;9.50;74.50
10911;DHT22;5508;49.150;11.030;2023-04-24T17:39:03;9.30;73.70
10911;DHT22;5508;49.150;11.030;2023-04-24T17:42:03;9.40;71.90
10911;DHT22;5508;49.150;11.030;2023-04-24T17:45:05;9.40;73.80
10911;DHT22;5508;49.150;11.030;2023-04-24T17:48:05;9.40;74.10
10911;DHT22;5508;49.150;11.030;2023-04-24T17:51:06;9.40;74.10
10911;DHT22;5508;49.150;11.030;2023-04-24T17:54:06;9.40;76.60
10911;DHT22;5508;49.150;11.030;2023-04-24T17:57:07;9.40;75.60
10911;DHT22;5508;49.150;11.030;2023-04-24T18:00:08;9.40;76.60
10911;DHT22;5508;49.150;11.030;2023-04-24T18:03:09;9.30;77.40
10911;DHT22;5508;49.150;11.030;2023-04-24T18:06:09;9.30;78.50
10911;DHT22;5508;49.150;11.030;2023-04-24T18:09:10;9.20;79.70
10911;DHT22;5508;49.150;11.030;2023-04-24T18:12:11;9.20;80.30
10911;DHT22;5508;49.150;11.030;2023-04-24T18:15:12;9.10;81.10
10911;DHT22;5508;49.150;11.030;2023-04-24T18:18:12;8.90;85.60
10911;DHT22;5508;49.150;11.030;2023-04-24T18:21:14;8.80;85.60
10911;DHT22;5508;49.150;11.030;2023-04-24T18:24:15;8.70;85.50
10911;DHT22;5508;49.150;11.030;2023-04-24T18:27:15;8.50;86.80
10911;DHT22;5508;49.150;11.030;2023-04-24T18:30:16;8.40;88.80
10911;DHT22;5508;49.150;11.030;2023-04-24T18:33:16;8.30;90.60
10911;DHT22;5508;49.150;11.030;2023-04-24T18:36:18;8.20;92.40
10911;DHT22;5508;49.150;11.030;2023-04-24T18:39:19;8.10;93.20
10911;DHT22;5508;49.150;11.030;2023-04-24T18:42:19;8.10;93.30
10911;DHT22;5508;49.150;11.030;2023-04-24T18:45:20;8.00;92.30
10911;DHT22;5508;49.150;11.030;2023-04-24T18:48:21;8.00;92.80
10911;DHT22;5508;49.150;11.030;2023-04-24T18:51:24;8.00;93.70
10911;DHT22;5508;49.150;11.030;2023-04-24T18:54:25;7.90;94.60
10911;DHT22;5508;49.150;11.030;2023-04-24T18:57:26;7.90;93.30
10911;DHT22;5508;49.150;11.030;2023-04-24T19:00:26;7.70;95.70
10911;DHT22;5508;49.150;11.030;2023-04-24T19:03:27;7.70;96.50
10911;DHT22;5508;49.150;11.030;2023-04-24T19:06:29;7.70;96.80
10911;DHT22;5508;49.150;11.030;2023-04-24T19:09:31;7.60;97.30
10911;DHT22;5508;49.150;11.030;2023-04-24T19:12:31;7.70;95.90
10911;DHT22;5508;49.150;11.030;2023-04-24T19:15:32;7.70;94.60
10911;DHT22;5508;49.150;11.030;2023-04-24T19:18:33;7.60;95.40
10911;DHT22;5508;49.150;11.030;2023-04-24T19:21:33;7.50;95.90
10911;DHT22;5508;49.150;11.030;2023-04-24T19:24:34;7.50;96.60